• Join FlightAware (Why Join?)
  • Login
  • US Flag 
07:59AM EDT


 

Airport Tracker/Info


-or-


 

Live Flight TrackerFlight Track Log ✈ GPD590 ✈ 30-Sep-2013 ✈ KACK - KHPN

Flight Track Log - Related Links

Times and Time Zones

All times are in EDT time to prevent confusion due to time zone crossing. See the GPD590 flight status page for this flight to view local times or setup timezone preferences in your user account.

Time Position Orientation Groundspeed Altitude Reporting Facility
EDT Latitude Longitude Course Direction KTS MPH feet Rate Location/Type
09:06AM 41.2631 -70.3042 258° West 201 231 4,500  Level Boston Center
09:07AM 41.2603 -70.3828 267° West 209 241 5,000 480 Climbing Boston Center
09:09AM 41.2561 -70.4653 266° West 219 252 5,500 420 Climbing Boston Center
09:10AM 41.2544 -70.5503 269° West 231 266 6,000 540 Climbing Boston Center
09:11AM 41.2478 -70.6481 265° West 225 259 6,700 540 Climbing Boston Center
09:12AM 41.2271 -70.5372 258° West  Level FlightAware Approximate
09:12AM 41.2444 -70.7325 267° West 227 261 7,200  Level Boston Center
09:13AM 41.2403 -70.8164 266° West 228 262 7,700 480 Climbing Boston Center
09:14AM 41.2364 -70.9128 267° West 235 270 8,300 540 Climbing Boston Center
09:15AM 41.2328 -71.0008 267° West 225 259 8,900 480 Climbing Boston Center
09:16AM 41.2281 -71.0842 266° West 225 259 9,300 420 Climbing Boston Center
09:17AM 41.2236 -71.1689 266° West 228 262 9,800 540 Climbing Boston Center
09:18AM 41.2200 -71.2592 267° West 228 262 10,400 480 Climbing Boston Center
09:19AM 41.2150 -71.3428 265° West 228 262 10,900 480 Climbing Boston Center
09:20AM 41.2106 -71.4286 266° West 233 268 11,400 480 Climbing Boston Center
09:21AM 41.2067 -71.5161 267° West 237 273 11,900 480 Climbing Boston Center
09:22AM 41.2008 -71.6075 265° West 232 267 12,400 240 Climbing Boston Center
09:23AM 41.1961 -71.6978 266° West 243 280 12,500 60 Climbing Boston Center
09:24AM 41.1914 -71.7922 266° West 254 292 12,600  Climbing Boston Center
09:25AM 41.1850 -71.8867 265° West 256 295 12,500 -60 Descending Boston Center
09:26AM 41.1806 -71.9758 266° West 258 297 12,500  Level Boston Center
09:27AM 41.1747 -72.0692 265° West 258 297 12,600  Climbing Boston Center
09:28AM 41.1692 -72.1625 266° West 256 295 12,500 -60 Descending Boston Center
09:29AM 41.1619 -72.2750 265° West 256 295 12,500  Level Boston Center
09:30AM 41.1558 -72.3708 265° West 263 303 12,500 -360 Level Boston Center
09:31AM 41.1508 -72.4669 266° West 266 306 11,800 -720 Descending Boston Center
09:32AM 41.1444 -72.5678 265° West 276 318 11,100 -780 Descending Boston Center
09:34AM 41.1333 -72.8167 267° West 276 318 9,300 -840 Descending New York TRACON
09:35AM 41.1167 -72.9000 255° West 271 312 8,500 -840 Descending New York TRACON
09:36AM 41.1167 -73.0000 270° West 273 314 7,800 -780 Descending New York TRACON
09:37AM 41.1167 -73.1000 270° West 266 306 7,000 -900 Descending New York TRACON
09:38AM 41.1000 -73.1833 255° West 265 305 6,200 -900 Descending New York TRACON
09:39AM 41.1000 -73.2833 270° West 258 297 5,400 -900 Descending New York TRACON
09:40AM 41.0833 -73.3833 258° West 259 298 4,400 -900 Descending New York TRACON
09:41AM 41.0833 -73.4500 270° West 260 299 3,800 -840 Descending New York TRACON
09:42AM 41.0667 -73.5333 255° West 217 250 2,900 -900 Descending New York TRACON
09:43AM 41.0500 -73.6000 252° West 182 209 2,100 -840 Descending New York TRACON
09:44AM 41.0500 -73.6667 270° West 150 173 1,400 -780 Descending New York TRACON
09:46AM 41.0667 -73.7000 270° West  Level FlightAware Approximate
09:53AM 41.0669 -73.7076 270° West  Level Estimated
09:54AM 41.0667 -73.7000 270° West  Level FlightAware Approximate